createdAt,value
2022-10-22T00:01:58.042Z,34.35
2022-10-22T00:06:59.661Z,36.30
2022-10-22T00:12:01.303Z,36.58
2022-10-22T00:17:04.243Z,35.75
2022-10-22T00:22:10.108Z,36.63
2022-10-22T00:27:12.774Z,35.85
2022-10-22T00:32:15.243Z,37.28
2022-10-22T00:37:16.926Z,34.15
2022-10-22T00:42:23.939Z,35.70
2022-10-22T00:52:28.958Z,37.30
2022-10-22T00:57:30.893Z,34.83
2022-10-22T01:02:32.568Z,37.30
2022-10-22T01:07:40.858Z,35.50
2022-10-22T01:13:09.551Z,36.15
2022-10-22T01:18:26.336Z,37.35
2022-10-22T01:29:28.622Z,39.15
2022-10-22T01:34:31.848Z,35.45
2022-10-22T01:39:36.780Z,37.38
2022-10-22T01:44:38.520Z,40.50
2022-10-22T01:50:25.514Z,39.03
2022-10-22T01:55:50.036Z,38.72
2022-10-22T02:01:03.164Z,36.78
2022-10-22T02:06:15.016Z,36.75
2022-10-22T02:11:17.027Z,36.47
2022-10-22T02:16:24.205Z,36.72
2022-10-22T02:21:27.105Z,38.65
2022-10-22T02:26:35.396Z,37.22
2022-10-22T02:31:40.611Z,38.15
2022-10-22T02:36:46.774Z,38.53
2022-10-22T02:41:51.212Z,37.90
2022-10-22T02:46:52.795Z,41.90
2022-10-22T02:51:54.358Z,38.88
2022-10-22T02:56:55.879Z,39.55
2022-10-22T03:01:57.499Z,37.67
2022-10-22T03:06:59.135Z,38.22
2022-10-22T03:12:00.750Z,39.25
2022-10-22T03:17:02.398Z,36.78
2022-10-22T03:22:09.894Z,38.70
2022-10-22T03:27:15.016Z,38.65
2022-10-22T03:32:16.775Z,38.13
2022-10-22T03:37:19.197Z,37.78
2022-10-22T03:42:21.858Z,36.03
2022-10-22T03:47:26.277Z,35.55
2022-10-22T03:52:28.025Z,38.08
2022-10-22T03:57:29.558Z,38.92
2022-10-22T04:02:31.118Z,33.55
2022-10-22T04:07:32.759Z,34.47
2022-10-22T04:12:34.298Z,34.58
2022-10-22T04:17:36.706Z,34.78
2022-10-22T04:22:38.329Z,34.45
2022-10-22T04:27:40.050Z,33.42
2022-10-22T04:32:41.908Z,35.58
2022-10-22T04:37:43.538Z,34.80
2022-10-22T04:42:45.126Z,35.78
2022-10-22T04:47:46.715Z,35.60
2022-10-22T04:52:48.344Z,37.13
2022-10-22T04:57:50.006Z,35.30
2022-10-22T05:02:51.735Z,36.28
2022-10-22T05:07:53.350Z,34.97
2022-10-22T05:12:54.998Z,38.92
2022-10-22T05:17:56.579Z,35.63
2022-10-22T05:22:58.092Z,38.17
2022-10-22T05:28:00.370Z,36.13
2022-10-22T05:33:02.094Z,35.92
2022-10-22T05:38:03.664Z,35.63
2022-10-22T05:43:05.294Z,37.75
2022-10-22T05:48:08.051Z,36.47
2022-10-22T05:53:10.173Z,34.45
2022-10-22T05:58:12.823Z,35.90
2022-10-22T06:03:14.379Z,35.40
2022-10-22T06:08:18.931Z,33.75
2022-10-22T06:13:20.918Z,33.30
2022-10-22T06:18:22.554Z,33.40
2022-10-22T06:23:24.101Z,34.72
2022-10-22T06:28:26.215Z,32.58
2022-10-22T06:33:29.276Z,33.33
2022-10-22T06:38:30.855Z,32.92
2022-10-22T06:43:32.535Z,32.00
2022-10-22T06:48:36.029Z,33.13
2022-10-22T06:53:40.093Z,33.08
2022-10-22T06:58:42.008Z,30.45
2022-10-22T07:03:43.819Z,32.45
2022-10-22T07:08:45.427Z,29.85
2022-10-22T07:13:47.789Z,31.88
2022-10-22T07:18:49.456Z,30.33
2022-10-22T07:23:51.098Z,31.45
2022-10-22T07:28:52.742Z,30.90
2022-10-22T07:33:54.387Z,31.65
2022-10-22T07:38:58.476Z,32.97
2022-10-22T07:44:00.149Z,31.88
2022-10-22T07:49:01.771Z,32.00
2022-10-22T07:54:04.226Z,31.30
2022-10-22T07:59:05.784Z,33.65
2022-10-22T08:04:10.997Z,32.25
2022-10-22T08:09:12.644Z,37.03
2022-10-22T08:14:14.381Z,7.40
2022-10-22T08:19:20.838Z,3.00
2022-10-22T08:24:22.457Z,1.70
2022-10-22T08:29:25.080Z,1.50
2022-10-22T08:34:26.665Z,1.50
2022-10-22T08:39:28.299Z,1.13
2022-10-22T08:45:03.947Z,1.45
2022-10-22T08:50:12.246Z,1.10
2022-10-22T08:55:15.582Z,1.30
2022-10-22T09:00:42.372Z,2.15
2022-10-22T09:05:52.918Z,1.15
2022-10-22T09:11:37.806Z,1.33
2022-10-22T09:17:24.644Z,6.15
2022-10-22T09:22:46.628Z,10.45
2022-10-22T09:27:50.124Z,20.10
2022-10-22T09:33:11.981Z,23.83
2022-10-22T09:38:16.272Z,28.50
2022-10-22T09:43:18.970Z,22.27
2022-10-22T09:48:28.405Z,16.77
2022-10-22T09:53:31.893Z,16.92
2022-10-22T09:58:44.000Z,16.08
2022-10-22T10:03:45.644Z,16.13
2022-10-22T10:08:48.484Z,15.25
2022-10-22T10:14:04.095Z,13.48
2022-10-22T10:19:25.803Z,14.13
2022-10-22T10:24:45.332Z,13.00
2022-10-22T10:30:03.079Z,11.90
2022-10-22T10:35:28.235Z,11.05
2022-10-22T10:40:43.691Z,0.68
2022-10-22T10:45:57.268Z,0.60
2022-10-22T10:51:19.340Z,0.40
2022-10-22T10:56:38.364Z,0.40
2022-10-22T11:02:14.175Z,0.40
2022-10-22T11:07:34.343Z,0.40
2022-10-22T11:12:42.478Z,0.40
2022-10-22T11:17:48.077Z,0.40
2022-10-22T11:23:20.861Z,0.40
2022-10-22T11:28:30.004Z,0.40
2022-10-22T11:34:33.604Z,0.45
2022-10-22T11:39:42.700Z,0.50
2022-10-22T11:45:05.094Z,0.50
2022-10-22T11:50:43.786Z,0.70
2022-10-22T11:55:51.792Z,0.82
2022-10-22T12:01:03.071Z,0.80
2022-10-22T12:06:15.639Z,0.60
2022-10-22T12:11:28.928Z,0.50
2022-10-22T12:16:54.667Z,0.77
2022-10-22T12:21:59.862Z,0.80
2022-10-22T12:27:01.450Z,0.70
2022-10-22T12:32:04.682Z,0.60
2022-10-22T12:37:06.260Z,0.65
2022-10-22T12:42:13.339Z,0.70
2022-10-22T12:47:18.821Z,0.70
2022-10-22T12:52:23.642Z,0.50
2022-10-22T12:57:25.565Z,0.52
2022-10-22T13:02:29.052Z,0.50
2022-10-22T13:07:39.403Z,0.70
2022-10-22T13:12:48.735Z,0.70
2022-10-22T13:17:50.388Z,0.50
2022-10-22T13:23:03.342Z,0.50
2022-10-22T13:28:21.780Z,0.40
2022-10-22T13:33:34.724Z,0.40
2022-10-22T13:38:36.626Z,0.90
2022-10-22T13:43:38.290Z,0.65
2022-10-22T13:48:40.136Z,0.77
2022-10-22T13:53:43.730Z,0.60
2022-10-22T13:58:47.033Z,0.40
2022-10-22T14:03:54.333Z,0.45
2022-10-22T14:08:59.358Z,0.40
2022-10-22T14:14:03.559Z,0.30
2022-10-22T14:19:07.818Z,0.30
2022-10-22T14:24:13.131Z,0.40
2022-10-22T14:29:15.186Z,0.50
2022-10-22T14:34:16.921Z,0.50
2022-10-22T14:39:18.654Z,0.60
2022-10-22T14:44:20.182Z,0.50
2022-10-22T14:49:21.908Z,0.60
2022-10-22T14:54:23.499Z,0.88
2022-10-22T14:59:25.138Z,0.60
2022-10-22T15:04:27.316Z,0.43
2022-10-22T15:09:29.140Z,0.60
2022-10-22T15:14:31.095Z,0.40
2022-10-22T15:19:32.737Z,0.50
2022-10-22T15:24:34.724Z,0.50
2022-10-22T15:29:36.503Z,0.70
2022-10-22T15:34:39.989Z,0.60
2022-10-22T15:39:42.476Z,0.60
2022-10-22T15:44:44.085Z,0.80
2022-10-22T15:49:45.867Z,1.33
2022-10-22T15:54:47.676Z,0.93
2022-10-22T15:59:50.150Z,0.70
2022-10-22T16:04:51.673Z,0.88
2022-10-22T16:09:58.168Z,0.85
2022-10-22T16:14:59.896Z,1.25
2022-10-22T16:20:01.623Z,1.40
2022-10-22T16:25:03.387Z,1.60
2022-10-22T16:30:05.474Z,1.70
2022-10-22T16:35:08.445Z,1.98
2022-10-22T16:40:11.112Z,1.85
2022-10-22T16:45:12.881Z,1.90
2022-10-22T16:50:14.494Z,2.22
2022-10-22T16:55:16.209Z,3.22
2022-10-22T17:00:18.193Z,3.15
2022-10-22T17:05:20.703Z,2.88
2022-10-22T17:15:24.843Z,3.35
2022-10-22T17:20:26.895Z,4.65
2022-10-22T17:25:44.956Z,4.90
2022-10-22T17:30:46.522Z,4.70
2022-10-22T17:35:49.377Z,4.75
2022-10-22T17:40:50.961Z,3.92
2022-10-22T17:45:52.575Z,3.55
2022-10-22T17:50:55.761Z,3.00
2022-10-22T17:56:01.966Z,3.40
2022-10-22T18:01:04.737Z,4.30
2022-10-22T18:06:07.796Z,4.55
2022-10-22T18:11:11.778Z,5.03
2022-10-22T18:16:13.377Z,4.43
2022-10-22T18:21:16.284Z,4.50
2022-10-22T18:26:20.349Z,4.10
2022-10-22T18:31:27.007Z,5.03
2022-10-22T18:36:28.814Z,5.22
2022-10-22T18:41:31.887Z,6.78
2022-10-22T18:46:35.134Z,9.95
2022-10-22T18:51:36.765Z,10.32
2022-10-22T18:56:40.623Z,8.43
2022-10-22T19:01:42.208Z,9.18
2022-10-22T19:06:45.745Z,11.20
2022-10-22T19:11:47.762Z,10.98
2022-10-22T19:16:49.735Z,5.95
2022-10-22T19:21:51.428Z,5.85
2022-10-22T19:26:53.511Z,5.63
2022-10-22T19:31:55.287Z,5.30
2022-10-22T19:36:56.916Z,5.45
2022-10-22T19:41:58.540Z,5.22
2022-10-22T19:47:00.128Z,4.63
2022-10-22T19:52:02.763Z,4.30
2022-10-22T19:57:04.380Z,3.65
2022-10-22T20:02:06.375Z,3.33
2022-10-22T20:07:08.129Z,2.33
2022-10-22T20:12:09.705Z,1.92
2022-10-22T20:17:11.415Z,1.88
2022-10-22T20:22:16.238Z,1.77
2022-10-22T20:27:20.349Z,1.88
2022-10-22T20:32:24.272Z,1.70
2022-10-22T20:37:25.940Z,1.40
2022-10-22T20:42:27.720Z,1.30
2022-10-22T20:47:39.284Z,1.42
2022-10-22T20:52:51.466Z,1.50
2022-10-22T20:57:53.136Z,1.35
2022-10-22T21:02:54.778Z,1.48
2022-10-22T21:07:58.410Z,1.60
2022-10-22T21:13:00.268Z,1.38
2022-10-22T21:18:01.824Z,1.73
2022-10-22T21:23:03.421Z,1.80
2022-10-22T21:28:05.106Z,1.92
2022-10-22T21:33:06.655Z,1.70
2022-10-22T21:38:08.285Z,1.50
2022-10-22T21:43:09.949Z,1.90
2022-10-22T21:48:13.925Z,2.10
2022-10-22T21:53:15.498Z,1.92
2022-10-22T21:58:17.143Z,1.90
2022-10-22T22:03:18.752Z,5.70
2022-10-22T22:08:20.309Z,10.98
2022-10-22T22:13:24.947Z,11.27
2022-10-22T22:18:26.696Z,11.55
2022-10-22T22:23:28.345Z,13.27
2022-10-22T22:28:30.463Z,12.57
2022-10-22T22:33:32.128Z,12.82
2022-10-22T22:38:33.731Z,13.10
2022-10-22T22:43:36.951Z,12.90
2022-10-22T22:48:38.915Z,11.32
2022-10-22T22:53:40.466Z,12.93
2022-10-22T22:58:42.358Z,13.38
2022-10-22T23:03:46.751Z,12.13
2022-10-22T23:08:50.221Z,12.52
2022-10-22T23:13:54.347Z,13.00
2022-10-22T23:18:56.280Z,12.02
2022-10-22T23:24:00.246Z,12.88
2022-10-22T23:29:07.044Z,13.32
2022-10-22T23:34:10.342Z,11.93
2022-10-22T23:39:14.527Z,12.45
2022-10-22T23:44:16.221Z,13.13
2022-10-22T23:49:18.457Z,13.30
2022-10-22T23:54:20.015Z,13.85
2022-10-22T23:59:21.585Z,12.05
